sensor_id;sensor_type;location;lat;lon;timestamp;temperature;humidity
38428;DHT22;24211;49.980;19.776;2023-10-31T00:00:06;11.50;99.90
38428;DHT22;24211;49.980;19.776;2023-10-31T00:03:11;11.60;99.90
38428;DHT22;24211;49.980;19.776;2023-10-31T00:05:45;11.70;99.90
38428;DHT22;24211;49.980;19.776;2023-10-31T00:08:16;11.80;99.90
38428;DHT22;24211;49.980;19.776;2023-10-31T00:10:46;11.80;99.90
38428;DHT22;24211;49.980;19.776;2023-10-31T00:13:13;11.80;99.90
38428;DHT22;24211;49.980;19.776;2023-10-31T00:15:42;11.80;99.90
38428;DHT22;24211;49.980;19.776;2023-10-31T00:18:09;11.80;99.90
38428;DHT22;24211;49.980;19.776;2023-10-31T00:20:36;11.70;99.90
38428;DHT22;24211;49.980;19.776;2023-10-31T00:23:04;11.80;99.90
38428;DHT22;24211;49.980;19.776;2023-10-31T00:25:32;11.80;99.90
38428;DHT22;24211;49.980;19.776;2023-10-31T00:27:59;11.90;99.90
38428;DHT22;24211;49.980;19.776;2023-10-31T00:30:33;11.90;99.90
38428;DHT22;24211;49.980;19.776;2023-10-31T00:33:01;11.90;99.90
38428;DHT22;24211;49.980;19.776;2023-10-31T00:35:44;11.90;99.90
38428;DHT22;24211;49.980;19.776;2023-10-31T00:38:11;11.90;99.90
38428;DHT22;24211;49.980;19.776;2023-10-31T00:40:39;11.90;99.90
38428;DHT22;24211;49.980;19.776;2023-10-31T00:43:06;11.90;99.90
38428;DHT22;24211;49.980;19.776;2023-10-31T00:45:45;11.90;99.90
38428;DHT22;24211;49.980;19.776;2023-10-31T00:48:13;11.90;99.90
38428;DHT22;24211;49.980;19.776;2023-10-31T00:50:40;11.90;99.90
38428;DHT22;24211;49.980;19.776;2023-10-31T00:53:07;11.90;99.90
38428;DHT22;24211;49.980;19.776;2023-10-31T00:55:35;11.90;99.90
38428;DHT22;24211;49.980;19.776;2023-10-31T00:58:08;11.90;99.90
38428;DHT22;24211;49.980;19.776;2023-10-31T01:00:35;11.90;99.90
38428;DHT22;24211;49.980;19.776;2023-10-31T01:03:19;12.00;99.90
38428;DHT22;24211;49.980;19.776;2023-10-31T01:05:46;12.00;99.90
38428;DHT22;24211;49.980;19.776;2023-10-31T01:08:20;12.00;99.90
38428;DHT22;24211;49.980;19.776;2023-10-31T01:10:48;12.00;99.90
38428;DHT22;24211;49.980;19.776;2023-10-31T01:13:15;11.80;99.90
38428;DHT22;24211;49.980;19.776;2023-10-31T01:15:43;11.80;99.90
38428;DHT22;24211;49.980;19.776;2023-10-31T01:18:12;11.50;99.90
38428;DHT22;24211;49.980;19.776;2023-10-31T01:20:50;11.40;99.90
38428;DHT22;24211;49.980;19.776;2023-10-31T01:23:26;11.30;99.90
38428;DHT22;24211;49.980;19.776;2023-10-31T01:25:54;11.40;99.90
38428;DHT22;24211;49.980;19.776;2023-10-31T01:28:37;11.40;99.90
38428;DHT22;24211;49.980;19.776;2023-10-31T01:31:05;11.40;99.90
38428;DHT22;24211;49.980;19.776;2023-10-31T01:33:33;11.50;99.90
38428;DHT22;24211;49.980;19.776;2023-10-31T01:36:01;11.50;99.90
38428;DHT22;24211;49.980;19.776;2023-10-31T01:38:28;11.50;99.90
38428;DHT22;24211;49.980;19.776;2023-10-31T01:40:57;11.50;99.90
38428;DHT22;24211;49.980;19.776;2023-10-31T01:43:36;11.60;99.90
38428;DHT22;24211;49.980;19.776;2023-10-31T01:46:05;11.70;99.90
38428;DHT22;24211;49.980;19.776;2023-10-31T01:48:34;11.70;99.90
38428;DHT22;24211;49.980;19.776;2023-10-31T01:51:10;11.70;99.90
38428;DHT22;24211;49.980;19.776;2023-10-31T01:53:41;11.70;99.90
38428;DHT22;24211;49.980;19.776;2023-10-31T01:56:38;11.70;99.90
38428;DHT22;24211;49.980;19.776;2023-10-31T01:59:10;11.70;99.90
38428;DHT22;24211;49.980;19.776;2023-10-31T02:01:49;11.70;99.90
38428;DHT22;24211;49.980;19.776;2023-10-31T02:04:16;11.80;99.90
38428;DHT22;24211;49.980;19.776;2023-10-31T02:06:53;11.80;99.90
38428;DHT22;24211;49.980;19.776;2023-10-31T02:09:20;12.00;99.90
38428;DHT22;24211;49.980;19.776;2023-10-31T02:12:04;12.10;99.90
38428;DHT22;24211;49.980;19.776;2023-10-31T02:14:38;12.40;99.90
38428;DHT22;24211;49.980;19.776;2023-10-31T02:17:16;12.40;99.90
38428;DHT22;24211;49.980;19.776;2023-10-31T02:19:56;12.50;99.90
38428;DHT22;24211;49.980;19.776;2023-10-31T02:22:26;12.50;99.90
38428;DHT22;24211;49.980;19.776;2023-10-31T02:25:16;12.80;99.90
38428;DHT22;24211;49.980;19.776;2023-10-31T02:27:53;12.70;99.90
38428;DHT22;24211;49.980;19.776;2023-10-31T02:30:21;12.60;99.90
38428;DHT22;24211;49.980;19.776;2023-10-31T02:32:51;12.40;99.90
38428;DHT22;24211;49.980;19.776;2023-10-31T02:35:23;12.40;99.90
38428;DHT22;24211;49.980;19.776;2023-10-31T02:37:50;12.40;99.90
38428;DHT22;24211;49.980;19.776;2023-10-31T02:40:17;12.40;99.90
38428;DHT22;24211;49.980;19.776;2023-10-31T02:42:45;12.40;99.90
38428;DHT22;24211;49.980;19.776;2023-10-31T02:45:12;12.50;99.90
38428;DHT22;24211;49.980;19.776;2023-10-31T02:47:46;12.50;99.90
38428;DHT22;24211;49.980;19.776;2023-10-31T02:50:21;12.60;99.90
38428;DHT22;24211;49.980;19.776;2023-10-31T02:52:48;12.50;99.90
38428;DHT22;24211;49.980;19.776;2023-10-31T02:55:21;12.70;99.90
38428;DHT22;24211;49.980;19.776;2023-10-31T02:57:49;12.80;99.90
38428;DHT22;24211;49.980;19.776;2023-10-31T03:00:16;12.80;99.90
38428;DHT22;24211;49.980;19.776;2023-10-31T03:02:45;12.70;99.90
38428;DHT22;24211;49.980;19.776;2023-10-31T03:05:17;12.80;99.90
38428;DHT22;24211;49.980;19.776;2023-10-31T03:07:44;12.90;99.90
38428;DHT22;24211;49.980;19.776;2023-10-31T03:10:12;13.00;99.90
38428;DHT22;24211;49.980;19.776;2023-10-31T03:12:39;13.50;99.90
38428;DHT22;24211;49.980;19.776;2023-10-31T03:15:07;13.50;99.90
38428;DHT22;24211;49.980;19.776;2023-10-31T03:17:35;13.40;99.90
38428;DHT22;24211;49.980;19.776;2023-10-31T03:20:13;13.70;99.90
38428;DHT22;24211;49.980;19.776;2023-10-31T03:22:41;13.80;99.90
38428;DHT22;24211;49.980;19.776;2023-10-31T03:25:08;13.90;99.90
38428;DHT22;24211;49.980;19.776;2023-10-31T03:27:42;13.90;99.90
38428;DHT22;24211;49.980;19.776;2023-10-31T03:30:10;14.00;99.90
38428;DHT22;24211;49.980;19.776;2023-10-31T03:32:40;14.00;99.90
38428;DHT22;24211;49.980;19.776;2023-10-31T03:35:07;13.90;99.90
38428;DHT22;24211;49.980;19.776;2023-10-31T03:37:35;14.00;99.90
38428;DHT22;24211;49.980;19.776;2023-10-31T03:40:04;14.20;99.90
38428;DHT22;24211;49.980;19.776;2023-10-31T03:42:37;14.30;99.90
38428;DHT22;24211;49.980;19.776;2023-10-31T03:45:04;14.10;99.90
38428;DHT22;24211;49.980;19.776;2023-10-31T03:47:36;13.90;99.90
38428;DHT22;24211;49.980;19.776;2023-10-31T03:50:10;13.80;99.90
38428;DHT22;24211;49.980;19.776;2023-10-31T03:52:37;13.80;99.90
38428;DHT22;24211;49.980;19.776;2023-10-31T03:55:08;13.80;99.90
38428;DHT22;24211;49.980;19.776;2023-10-31T03:58:12;14.10;99.90
38428;DHT22;24211;49.980;19.776;2023-10-31T04:00:39;14.10;99.90
38428;DHT22;24211;49.980;19.776;2023-10-31T04:03:10;14.10;99.90
38428;DHT22;24211;49.980;19.776;2023-10-31T04:05:53;14.20;99.90
38428;DHT22;24211;49.980;19.776;2023-10-31T04:08:21;14.50;99.90
38428;DHT22;24211;49.980;19.776;2023-10-31T04:10:48;14.50;99.90
38428;DHT22;24211;49.980;19.776;2023-10-31T04:13:20;14.50;99.90
38428;DHT22;24211;49.980;19.776;2023-10-31T04:15:47;14.40;99.90
38428;DHT22;24211;49.980;19.776;2023-10-31T04:18:20;14.50;99.90
38428;DHT22;24211;49.980;19.776;2023-10-31T04:20:47;14.60;99.90
38428;DHT22;24211;49.980;19.776;2023-10-31T04:23:14;14.70;99.90
38428;DHT22;24211;49.980;19.776;2023-10-31T04:25:44;14.80;99.90
38428;DHT22;24211;49.980;19.776;2023-10-31T04:28:11;14.90;99.90
38428;DHT22;24211;49.980;19.776;2023-10-31T04:30:40;15.00;99.90
38428;DHT22;24211;49.980;19.776;2023-10-31T04:33:19;15.10;99.90
38428;DHT22;24211;49.980;19.776;2023-10-31T04:35:46;15.20;99.90
38428;DHT22;24211;49.980;19.776;2023-10-31T04:38:21;15.20;99.90
38428;DHT22;24211;49.980;19.776;2023-10-31T04:40:48;15.30;99.90
38428;DHT22;24211;49.980;19.776;2023-10-31T04:43:20;15.30;99.90
38428;DHT22;24211;49.980;19.776;2023-10-31T04:45:47;15.40;99.90
38428;DHT22;24211;49.980;19.776;2023-10-31T04:48:14;15.50;99.90
38428;DHT22;24211;49.980;19.776;2023-10-31T04:50:42;15.50;99.90
38428;DHT22;24211;49.980;19.776;2023-10-31T04:53:09;15.50;99.90
38428;DHT22;24211;49.980;19.776;2023-10-31T04:55:36;15.50;99.90
38428;DHT22;24211;49.980;19.776;2023-10-31T04:58:07;15.60;99.90
38428;DHT22;24211;49.980;19.776;2023-10-31T05:00:34;15.60;99.90
38428;DHT22;24211;49.980;19.776;2023-10-31T05:03:02;15.60;99.90
38428;DHT22;24211;49.980;19.776;2023-10-31T05:05:33;15.60;99.90
38428;DHT22;24211;49.980;19.776;2023-10-31T05:08:00;15.60;99.90
38428;DHT22;24211;49.980;19.776;2023-10-31T05:10:28;15.60;99.90
38428;DHT22;24211;49.980;19.776;2023-10-31T05:13:05;15.70;99.90
38428;DHT22;24211;49.980;19.776;2023-10-31T05:15:38;15.70;99.90
38428;DHT22;24211;49.980;19.776;2023-10-31T05:18:11;15.70;99.90
38428;DHT22;24211;49.980;19.776;2023-10-31T05:20:38;15.70;99.90
38428;DHT22;24211;49.980;19.776;2023-10-31T05:23:05;15.70;99.90
38428;DHT22;24211;49.980;19.776;2023-10-31T05:25:32;15.80;99.90
38428;DHT22;24211;49.980;19.776;2023-10-31T05:28:07;15.80;99.90
38428;DHT22;24211;49.980;19.776;2023-10-31T05:30:37;15.80;99.90
38428;DHT22;24211;49.980;19.776;2023-10-31T05:33:08;15.90;99.90
38428;DHT22;24211;49.980;19.776;2023-10-31T05:35:35;16.00;99.90
38428;DHT22;24211;49.980;19.776;2023-10-31T05:38:05;16.00;99.90
38428;DHT22;24211;49.980;19.776;2023-10-31T05:40:39;16.10;99.90
38428;DHT22;24211;49.980;19.776;2023-10-31T05:43:06;16.20;99.90
38428;DHT22;24211;49.980;19.776;2023-10-31T05:45:37;16.20;99.90
38428;DHT22;24211;49.980;19.776;2023-10-31T05:48:44;16.30;99.90
38428;DHT22;24211;49.980;19.776;2023-10-31T05:51:20;16.50;99.90
38428;DHT22;24211;49.980;19.776;2023-10-31T05:53:54;16.50;99.90
38428;DHT22;24211;49.980;19.776;2023-10-31T05:56:23;16.50;99.90
38428;DHT22;24211;49.980;19.776;2023-10-31T05:58:50;16.50;99.90
38428;DHT22;24211;49.980;19.776;2023-10-31T06:01:17;16.60;99.90
38428;DHT22;24211;49.980;19.776;2023-10-31T06:03:46;16.60;99.90
38428;DHT22;24211;49.980;19.776;2023-10-31T06:06:15;16.60;99.90
38428;DHT22;24211;49.980;19.776;2023-10-31T06:08:43;16.60;99.90
38428;DHT22;24211;49.980;19.776;2023-10-31T06:11:14;16.60;99.90
38428;DHT22;24211;49.980;19.776;2023-10-31T06:13:44;16.70;99.90
38428;DHT22;24211;49.980;19.776;2023-10-31T06:16:15;16.70;99.90
38428;DHT22;24211;49.980;19.776;2023-10-31T06:18:42;16.70;99.90
38428;DHT22;24211;49.980;19.776;2023-10-31T06:21:10;16.70;99.90
38428;DHT22;24211;49.980;19.776;2023-10-31T06:23:39;16.60;99.90
38428;DHT22;24211;49.980;19.776;2023-10-31T06:26:06;16.70;99.90
38428;DHT22;24211;49.980;19.776;2023-10-31T06:28:33;16.70;99.90
38428;DHT22;24211;49.980;19.776;2023-10-31T06:31:09;16.80;99.90
38428;DHT22;24211;49.980;19.776;2023-10-31T06:33:36;16.90;99.90
38428;DHT22;24211;49.980;19.776;2023-10-31T06:36:04;16.90;99.90
38428;DHT22;24211;49.980;19.776;2023-10-31T06:38:35;16.90;99.90
38428;DHT22;24211;49.980;19.776;2023-10-31T06:41:03;17.00;99.90
38428;DHT22;24211;49.980;19.776;2023-10-31T06:43:34;17.00;99.90
38428;DHT22;24211;49.980;19.776;2023-10-31T06:46:02;17.00;99.90
38428;DHT22;24211;49.980;19.776;2023-10-31T06:48:32;17.00;99.90
38428;DHT22;24211;49.980;19.776;2023-10-31T06:50:59;17.00;99.90
38428;DHT22;24211;49.980;19.776;2023-10-31T06:53:27;17.00;99.90
38428;DHT22;24211;49.980;19.776;2023-10-31T06:55:54;17.00;99.90
38428;DHT22;24211;49.980;19.776;2023-10-31T06:58:21;17.10;99.90
38428;DHT22;24211;49.980;19.776;2023-10-31T07:00:49;17.00;99.90
38428;DHT22;24211;49.980;19.776;2023-10-31T07:03:19;17.10;99.90
38428;DHT22;24211;49.980;19.776;2023-10-31T07:05:46;17.10;99.90
38428;DHT22;24211;49.980;19.776;2023-10-31T07:08:15;17.10;99.90
38428;DHT22;24211;49.980;19.776;2023-10-31T07:10:44;17.00;99.90
38428;DHT22;24211;49.980;19.776;2023-10-31T07:13:12;17.00;99.90
38428;DHT22;24211;49.980;19.776;2023-10-31T07:15:40;17.00;99.90
38428;DHT22;24211;49.980;19.776;2023-10-31T07:21:14;17.00;99.90
38428;DHT22;24211;49.980;19.776;2023-10-31T07:23:42;17.00;99.90
38428;DHT22;24211;49.980;19.776;2023-10-31T07:26:11;17.00;99.90
38428;DHT22;24211;49.980;19.776;2023-10-31T07:28:38;17.00;99.90
38428;DHT22;24211;49.980;19.776;2023-10-31T07:31:06;17.00;99.90
38428;DHT22;24211;49.980;19.776;2023-10-31T07:33:34;17.00;99.90
38428;DHT22;24211;49.980;19.776;2023-10-31T07:36:01;17.00;99.90
38428;DHT22;24211;49.980;19.776;2023-10-31T07:38:29;17.00;99.90
38428;DHT22;24211;49.980;19.776;2023-10-31T07:40:56;17.00;99.90
38428;DHT22;24211;49.980;19.776;2023-10-31T07:43:24;17.10;99.90
38428;DHT22;24211;49.980;19.776;2023-10-31T07:45:51;17.10;99.90
38428;DHT22;24211;49.980;19.776;2023-10-31T07:48:20;17.20;99.90
38428;DHT22;24211;49.980;19.776;2023-10-31T07:50:48;17.20;99.90
38428;DHT22;24211;49.980;19.776;2023-10-31T07:53:18;17.30;99.90
38428;DHT22;24211;49.980;19.776;2023-10-31T07:55:48;17.30;99.90
38428;DHT22;24211;49.980;19.776;2023-10-31T07:58:16;17.30;99.90
38428;DHT22;24211;49.980;19.776;2023-10-31T08:00:43;17.40;99.90
38428;DHT22;24211;49.980;19.776;2023-10-31T08:03:11;17.40;99.90
38428;DHT22;24211;49.980;19.776;2023-10-31T08:05:39;17.40;99.90
38428;DHT22;24211;49.980;19.776;2023-10-31T08:08:07;17.50;99.90
38428;DHT22;24211;49.980;19.776;2023-10-31T08:10:34;17.50;99.90
38428;DHT22;24211;49.980;19.776;2023-10-31T08:13:02;17.50;99.90
38428;DHT22;24211;49.980;19.776;2023-10-31T08:15:29;17.60;99.90
38428;DHT22;24211;49.980;19.776;2023-10-31T08:17:57;17.70;99.90
38428;DHT22;24211;49.980;19.776;2023-10-31T08:20:26;17.80;99.90
38428;DHT22;24211;49.980;19.776;2023-10-31T08:22:59;17.80;99.90
38428;DHT22;24211;49.980;19.776;2023-10-31T08:25:27;17.80;99.90
38428;DHT22;24211;49.980;19.776;2023-10-31T08:27:55;17.80;99.90
38428;DHT22;24211;49.980;19.776;2023-10-31T08:30:23;17.90;99.90
38428;DHT22;24211;49.980;19.776;2023-10-31T08:32:51;17.90;99.90
38428;DHT22;24211;49.980;19.776;2023-10-31T08:35:19;18.00;99.90
38428;DHT22;24211;49.980;19.776;2023-10-31T08:37:48;18.00;99.90
38428;DHT22;24211;49.980;19.776;2023-10-31T08:40:18;18.00;99.90
38428;DHT22;24211;49.980;19.776;2023-10-31T08:42:45;18.00;99.90
38428;DHT22;24211;49.980;19.776;2023-10-31T08:45:13;18.10;99.90
38428;DHT22;24211;49.980;19.776;2023-10-31T08:47:43;18.10;99.90
38428;DHT22;24211;49.980;19.776;2023-10-31T08:50:11;18.10;99.90
38428;DHT22;24211;49.980;19.776;2023-10-31T08:52:38;18.20;99.90
38428;DHT22;24211;49.980;19.776;2023-10-31T08:55:06;18.10;99.90
38428;DHT22;24211;49.980;19.776;2023-10-31T08:57:36;18.20;99.90
38428;DHT22;24211;49.980;19.776;2023-10-31T09:00:05;18.20;99.90
38428;DHT22;24211;49.980;19.776;2023-10-31T09:02:33;18.30;99.90
38428;DHT22;24211;49.980;19.776;2023-10-31T09:05:02;18.30;99.90
38428;DHT22;24211;49.980;19.776;2023-10-31T09:07:30;18.30;99.90
38428;DHT22;24211;49.980;19.776;2023-10-31T09:10:02;18.30;99.90
38428;DHT22;24211;49.980;19.776;2023-10-31T09:12:33;18.40;99.90
38428;DHT22;24211;49.980;19.776;2023-10-31T09:15:00;18.40;99.90
38428;DHT22;24211;49.980;19.776;2023-10-31T09:17:28;18.40;99.90
38428;DHT22;24211;49.980;19.776;2023-10-31T09:19:57;18.50;99.90
38428;DHT22;24211;49.980;19.776;2023-10-31T09:22:24;18.50;99.90
38428;DHT22;24211;49.980;19.776;2023-10-31T09:24:52;18.50;99.90
38428;DHT22;24211;49.980;19.776;2023-10-31T09:27:19;18.50;99.90
38428;DHT22;24211;49.980;19.776;2023-10-31T09:29:47;18.60;99.90
38428;DHT22;24211;49.980;19.776;2023-10-31T09:32:16;18.60;99.90
38428;DHT22;24211;49.980;19.776;2023-10-31T09:34:44;18.60;99.90
38428;DHT22;24211;49.980;19.776;2023-10-31T09:37:11;18.60;99.90
38428;DHT22;24211;49.980;19.776;2023-10-31T09:39:38;18.70;99.90
38428;DHT22;24211;49.980;19.776;2023-10-31T09:42:06;18.70;99.90
38428;DHT22;24211;49.980;19.776;2023-10-31T09:44:35;18.80;99.90
38428;DHT22;24211;49.980;19.776;2023-10-31T09:47:03;18.80;99.90
38428;DHT22;24211;49.980;19.776;2023-10-31T09:49:35;18.90;99.90
38428;DHT22;24211;49.980;19.776;2023-10-31T09:52:03;18.90;99.90
38428;DHT22;24211;49.980;19.776;2023-10-31T09:54:37;18.90;99.90
38428;DHT22;24211;49.980;19.776;2023-10-31T09:57:07;19.00;99.90
38428;DHT22;24211;49.980;19.776;2023-10-31T09:59:37;19.00;99.90
38428;DHT22;24211;49.980;19.776;2023-10-31T10:02:05;19.00;99.90
38428;DHT22;24211;49.980;19.776;2023-10-31T10:04:33;19.10;99.90
38428;DHT22;24211;49.980;19.776;2023-10-31T10:07:02;19.10;99.90
38428;DHT22;24211;49.980;19.776;2023-10-31T10:09:31;19.10;99.90
38428;DHT22;24211;49.980;19.776;2023-10-31T10:12:01;19.10;99.90
38428;DHT22;24211;49.980;19.776;2023-10-31T10:14:29;19.10;99.90
38428;DHT22;24211;49.980;19.776;2023-10-31T10:16:59;19.10;99.90
38428;DHT22;24211;49.980;19.776;2023-10-31T10:19:28;19.00;99.90
38428;DHT22;24211;49.980;19.776;2023-10-31T10:21:57;19.10;99.90
38428;DHT22;24211;49.980;19.776;2023-10-31T10:24:25;19.00;99.90
38428;DHT22;24211;49.980;19.776;2023-10-31T10:26:53;19.00;99.90
38428;DHT22;24211;49.980;19.776;2023-10-31T10:29:21;19.00;99.90
38428;DHT22;24211;49.980;19.776;2023-10-31T10:31:59;18.90;99.90
38428;DHT22;24211;49.980;19.776;2023-10-31T10:34:36;18.90;99.90
38428;DHT22;24211;49.980;19.776;2023-10-31T10:37:05;18.80;99.90
38428;DHT22;24211;49.980;19.776;2023-10-31T10:39:34;18.80;99.90
38428;DHT22;24211;49.980;19.776;2023-10-31T10:42:09;18.90;99.90
38428;DHT22;24211;49.980;19.776;2023-10-31T10:44:43;19.00;99.90
38428;DHT22;24211;49.980;19.776;2023-10-31T10:47:12;19.10;99.90
38428;DHT22;24211;49.980;19.776;2023-10-31T10:49:42;19.20;99.90
38428;DHT22;24211;49.980;19.776;2023-10-31T10:52:23;19.20;99.90
38428;DHT22;24211;49.980;19.776;2023-10-31T10:55:07;19.20;99.90
38428;DHT22;24211;49.980;19.776;2023-10-31T11:00:33;19.10;99.90
38428;DHT22;24211;49.980;19.776;2023-10-31T11:03:09;19.10;99.90
38428;DHT22;24211;49.980;19.776;2023-10-31T11:05:42;19.10;99.90
38428;DHT22;24211;49.980;19.776;2023-10-31T11:08:10;19.00;99.90
38428;DHT22;24211;49.980;19.776;2023-10-31T11:10:48;19.00;99.90
38428;DHT22;24211;49.980;19.776;2023-10-31T11:13:16;18.90;99.90
38428;DHT22;24211;49.980;19.776;2023-10-31T11:15:44;18.90;99.90
38428;DHT22;24211;49.980;19.776;2023-10-31T11:18:12;18.90;99.90
38428;DHT22;24211;49.980;19.776;2023-10-31T11:20:41;18.90;99.90
38428;DHT22;24211;49.980;19.776;2023-10-31T11:23:14;18.90;99.90
38428;DHT22;24211;49.980;19.776;2023-10-31T11:25:44;18.90;99.90
38428;DHT22;24211;49.980;19.776;2023-10-31T11:28:16;18.90;99.90
38428;DHT22;24211;49.980;19.776;2023-10-31T11:30:47;18.90;99.90
38428;DHT22;24211;49.980;19.776;2023-10-31T11:33:20;18.90;99.90
38428;DHT22;24211;49.980;19.776;2023-10-31T11:35:51;18.90;99.90
38428;DHT22;24211;49.980;19.776;2023-10-31T11:38:36;18.90;99.90
38428;DHT22;24211;49.980;19.776;2023-10-31T11:41:05;18.80;99.90
38428;DHT22;24211;49.980;19.776;2023-10-31T11:46:22;18.80;99.90
38428;DHT22;24211;49.980;19.776;2023-10-31T11:48:55;18.70;99.90
38428;DHT22;24211;49.980;19.776;2023-10-31T11:51:24;18.70;99.90
38428;DHT22;24211;49.980;19.776;2023-10-31T11:53:52;18.60;99.90
38428;DHT22;24211;49.980;19.776;2023-10-31T11:56:20;18.70;99.90
38428;DHT22;24211;49.980;19.776;2023-10-31T11:59:03;18.60;99.90
38428;DHT22;24211;49.980;19.776;2023-10-31T12:01:50;18.60;99.90
38428;DHT22;24211;49.980;19.776;2023-10-31T12:04:22;18.60;99.90
38428;DHT22;24211;49.980;19.776;2023-10-31T12:06:58;18.60;99.90
38428;DHT22;24211;49.980;19.776;2023-10-31T12:09:29;18.60;99.90
38428;DHT22;24211;49.980;19.776;2023-10-31T12:12:02;18.60;99.90
38428;DHT22;24211;49.980;19.776;2023-10-31T12:14:29;18.50;99.90
38428;DHT22;24211;49.980;19.776;2023-10-31T12:17:04;18.60;99.90
38428;DHT22;24211;49.980;19.776;2023-10-31T12:19:32;18.60;99.90
38428;DHT22;24211;49.980;19.776;2023-10-31T12:22:12;18.60;99.90
38428;DHT22;24211;49.980;19.776;2023-10-31T12:24:44;18.60;99.90
38428;DHT22;24211;49.980;19.776;2023-10-31T12:27:45;18.70;99.90
38428;DHT22;24211;49.980;19.776;2023-10-31T12:30:14;18.70;99.90
38428;DHT22;24211;49.980;19.776;2023-10-31T12:32:55;18.80;99.90
38428;DHT22;24211;49.980;19.776;2023-10-31T12:35:28;18.80;99.90
38428;DHT22;24211;49.980;19.776;2023-10-31T12:37:55;18.80;99.90
38428;DHT22;24211;49.980;19.776;2023-10-31T12:40:25;18.90;99.90
38428;DHT22;24211;49.980;19.776;2023-10-31T12:42:52;19.00;99.90
38428;DHT22;24211;49.980;19.776;2023-10-31T12:45:20;19.00;99.90
38428;DHT22;24211;49.980;19.776;2023-10-31T12:48:23;19.10;99.90
38428;DHT22;24211;49.980;19.776;2023-10-31T12:51:06;19.30;99.90
38428;DHT22;24211;49.980;19.776;2023-10-31T12:53:36;19.40;99.90
38428;DHT22;24211;49.980;19.776;2023-10-31T12:56:04;19.50;99.90
38428;DHT22;24211;49.980;19.776;2023-10-31T12:58:32;19.60;99.90
38428;DHT22;24211;49.980;19.776;2023-10-31T13:01:10;19.60;99.90
38428;DHT22;24211;49.980;19.776;2023-10-31T13:03:50;19.60;99.90
38428;DHT22;24211;49.980;19.776;2023-10-31T13:06:23;19.60;99.90
38428;DHT22;24211;49.980;19.776;2023-10-31T13:08:59;19.60;99.90
38428;DHT22;24211;49.980;19.776;2023-10-31T13:11:30;19.60;99.90
38428;DHT22;24211;49.980;19.776;2023-10-31T13:14:01;19.60;99.90
38428;DHT22;24211;49.980;19.776;2023-10-31T13:16:45;19.50;99.90
38428;DHT22;24211;49.980;19.776;2023-10-31T13:19:44;19.50;99.90
38428;DHT22;24211;49.980;19.776;2023-10-31T13:22:16;19.50;99.90
38428;DHT22;24211;49.980;19.776;2023-10-31T13:24:43;19.50;99.90
38428;DHT22;24211;49.980;19.776;2023-10-31T13:27:11;19.40;99.90
38428;DHT22;24211;49.980;19.776;2023-10-31T13:29:43;19.40;99.90
38428;DHT22;24211;49.980;19.776;2023-10-31T13:32:10;19.40;99.90
38428;DHT22;24211;49.980;19.776;2023-10-31T13:34:38;19.30;99.90
38428;DHT22;24211;49.980;19.776;2023-10-31T13:37:08;19.30;99.90
38428;DHT22;24211;49.980;19.776;2023-10-31T13:39:36;19.20;99.90
38428;DHT22;24211;49.980;19.776;2023-10-31T13:42:04;19.20;99.90
38428;DHT22;24211;49.980;19.776;2023-10-31T13:44:31;19.10;99.90
38428;DHT22;24211;49.980;19.776;2023-10-31T13:47:27;19.00;99.90
38428;DHT22;24211;49.980;19.776;2023-10-31T13:49:59;18.90;99.90
38428;DHT22;24211;49.980;19.776;2023-10-31T13:52:32;18.80;99.90
38428;DHT22;24211;49.980;19.776;2023-10-31T13:54:59;18.80;99.90
38428;DHT22;24211;49.980;19.776;2023-10-31T13:57:27;18.70;99.90
38428;DHT22;24211;49.980;19.776;2023-10-31T13:59:54;18.70;99.90
38428;DHT22;24211;49.980;19.776;2023-10-31T14:02:43;18.60;99.90
38428;DHT22;24211;49.980;19.776;2023-10-31T14:05:11;18.50;99.90
38428;DHT22;24211;49.980;19.776;2023-10-31T14:07:40;18.40;99.90
38428;DHT22;24211;49.980;19.776;2023-10-31T14:10:11;18.40;99.90
38428;DHT22;24211;49.980;19.776;2023-10-31T14:12:38;18.30;99.90
38428;DHT22;24211;49.980;19.776;2023-10-31T14:15:12;18.20;99.90
38428;DHT22;24211;49.980;19.776;2023-10-31T14:17:42;18.20;99.90
38428;DHT22;24211;49.980;19.776;2023-10-31T14:20:09;18.10;99.90
38428;DHT22;24211;49.980;19.776;2023-10-31T14:22:49;18.10;99.90
38428;DHT22;24211;49.980;19.776;2023-10-31T14:25:24;18.00;99.90
38428;DHT22;24211;49.980;19.776;2023-10-31T14:27:52;18.00;99.90
38428;DHT22;24211;49.980;19.776;2023-10-31T14:30:19;17.90;99.90
38428;DHT22;24211;49.980;19.776;2023-10-31T14:32:58;17.80;99.90
38428;DHT22;24211;49.980;19.776;2023-10-31T14:35:26;17.80;99.90
38428;DHT22;24211;49.980;19.776;2023-10-31T14:37:53;17.70;99.90
38428;DHT22;24211;49.980;19.776;2023-10-31T14:40:20;17.70;99.90
38428;DHT22;24211;49.980;19.776;2023-10-31T14:42:49;17.70;99.90
38428;DHT22;24211;49.980;19.776;2023-10-31T14:45:27;17.60;99.90
38428;DHT22;24211;49.980;19.776;2023-10-31T14:47:55;17.50;99.90
38428;DHT22;24211;49.980;19.776;2023-10-31T14:50:22;17.50;99.90
38428;DHT22;24211;49.980;19.776;2023-10-31T14:52:49;17.40;99.90
38428;DHT22;24211;49.980;19.776;2023-10-31T14:55:16;17.50;99.90
38428;DHT22;24211;49.980;19.776;2023-10-31T14:57:47;17.40;99.90
38428;DHT22;24211;49.980;19.776;2023-10-31T15:00:15;17.40;99.90
38428;DHT22;24211;49.980;19.776;2023-10-31T15:02:43;17.30;99.90
38428;DHT22;24211;49.980;19.776;2023-10-31T15:05:10;17.20;99.90
38428;DHT22;24211;49.980;19.776;2023-10-31T15:07:37;17.20;99.90
38428;DHT22;24211;49.980;19.776;2023-10-31T15:10:06;17.10;99.90
38428;DHT22;24211;49.980;19.776;2023-10-31T15:13:00;17.00;99.90
38428;DHT22;24211;49.980;19.776;2023-10-31T15:15:27;17.00;99.90
38428;DHT22;24211;49.980;19.776;2023-10-31T15:18:03;16.90;99.90
38428;DHT22;24211;49.980;19.776;2023-10-31T15:20:30;16.80;99.90
38428;DHT22;24211;49.980;19.776;2023-10-31T15:23:03;16.80;99.90
38428;DHT22;24211;49.980;19.776;2023-10-31T15:25:30;16.60;99.90
38428;DHT22;24211;49.980;19.776;2023-10-31T15:28:29;16.50;99.90
38428;DHT22;24211;49.980;19.776;2023-10-31T15:31:22;16.40;99.90
38428;DHT22;24211;49.980;19.776;2023-10-31T15:34:04;16.10;99.90
38428;DHT22;24211;49.980;19.776;2023-10-31T15:36:31;16.00;99.90
38428;DHT22;24211;49.980;19.776;2023-10-31T15:38:59;15.90;99.90
38428;DHT22;24211;49.980;19.776;2023-10-31T15:41:56;15.90;99.90
38428;DHT22;24211;49.980;19.776;2023-10-31T15:44:24;16.00;99.90
38428;DHT22;24211;49.980;19.776;2023-10-31T15:46:56;16.00;99.90